createdAt,value
2022-08-20T00:00:02.941Z,19.25
2022-08-20T00:02:42.317Z,18.45
2022-08-20T00:05:15.150Z,18.65
2022-08-20T00:07:44.960Z,18.10
2022-08-20T00:10:15.108Z,17.80
2022-08-20T00:12:47.384Z,18.33
2022-08-20T00:15:21.752Z,18.33
2022-08-20T00:17:52.421Z,18.00
2022-08-20T00:20:27.542Z,16.45
2022-08-20T00:22:57.340Z,17.67
2022-08-20T00:25:31.524Z,16.58
2022-08-20T00:28:03.753Z,17.75
2022-08-20T00:30:34.440Z,18.05
2022-08-20T00:33:06.484Z,19.05
2022-08-20T00:35:40.743Z,19.90
2022-08-20T00:38:10.484Z,19.57
2022-08-20T00:40:43.211Z,18.63
2022-08-20T00:43:29.744Z,19.02
2022-08-20T00:45:59.996Z,20.80
2022-08-20T00:48:33.236Z,21.33
2022-08-20T00:51:08.516Z,21.98
2022-08-20T00:53:39.025Z,22.38
2022-08-20T00:56:10.371Z,22.80
2022-08-20T00:58:42.919Z,24.10
2022-08-20T01:01:12.719Z,23.85
2022-08-20T01:03:42.612Z,26.10
2022-08-20T01:06:14.922Z,25.70
2022-08-20T01:08:44.954Z,24.15
2022-08-20T01:11:16.766Z,25.17
2022-08-20T01:13:48.550Z,25.60
2022-08-20T01:16:23.212Z,23.38
2022-08-20T01:18:53.456Z,26.27
2022-08-20T01:21:28.311Z,25.05
2022-08-20T01:24:00.718Z,25.60
2022-08-20T01:26:34.614Z,24.75
2022-08-20T01:29:08.021Z,24.50
2022-08-20T01:31:40.888Z,24.92
2022-08-20T01:34:12.864Z,24.20
2022-08-20T01:36:46.456Z,24.50
2022-08-20T01:39:19.206Z,23.90
2022-08-20T01:41:58.196Z,23.02
2022-08-20T01:44:28.047Z,24.80
2022-08-20T01:47:00.958Z,23.80
2022-08-20T01:49:34.850Z,23.43
2022-08-20T01:52:09.576Z,23.42
2022-08-20T01:54:39.271Z,24.58
2022-08-20T01:57:15.550Z,23.58
2022-08-20T01:59:45.927Z,24.27
2022-08-20T02:02:15.984Z,22.85
2022-08-20T02:04:45.669Z,23.95
2022-08-20T02:07:18.319Z,22.02
2022-08-20T02:09:48.972Z,24.00
2022-08-20T02:12:21.499Z,23.13
2022-08-20T02:14:53.827Z,22.35
2022-08-20T02:17:25.564Z,23.10
2022-08-20T02:19:57.634Z,22.30
2022-08-20T02:22:30.219Z,21.80
2022-08-20T02:25:00.012Z,23.15
2022-08-20T02:27:33.709Z,22.77
2022-08-20T02:30:05.126Z,23.58
2022-08-20T02:32:36.187Z,23.63
2022-08-20T02:35:08.726Z,24.73
2022-08-20T02:37:39.233Z,24.02
2022-08-20T02:40:11.313Z,22.88
2022-08-20T02:42:44.175Z,22.50
2022-08-20T02:45:19.057Z,23.70
2022-08-20T02:47:49.714Z,23.55
2022-08-20T02:50:22.384Z,22.25
2022-08-20T02:52:52.469Z,23.73
2022-08-20T02:55:25.328Z,23.70
2022-08-20T02:58:01.019Z,23.13
2022-08-20T03:00:38.157Z,23.80
2022-08-20T03:03:10.326Z,23.33
2022-08-20T03:05:41.465Z,23.08
2022-08-20T03:08:12.965Z,22.63
2022-08-20T03:10:44.290Z,23.92
2022-08-20T03:13:18.520Z,21.95
2022-08-20T03:15:53.239Z,23.23
2022-08-20T03:18:26.278Z,22.13
2022-08-20T03:20:55.901Z,26.00
2022-08-20T03:23:25.646Z,24.08
2022-08-20T03:25:55.700Z,22.38
2022-08-20T03:28:28.047Z,22.85
2022-08-20T03:30:59.442Z,23.63
2022-08-20T03:33:29.963Z,22.50
2022-08-20T03:35:59.589Z,22.60
2022-08-20T03:38:33.203Z,23.35
2022-08-20T03:41:03.723Z,23.85
2022-08-20T03:43:37.462Z,22.95
2022-08-20T03:46:23.410Z,24.52
2022-08-20T03:48:56.727Z,23.00
2022-08-20T03:51:34.397Z,23.17
2022-08-20T03:54:22.771Z,23.20
2022-08-20T03:56:52.489Z,22.13
2022-08-20T03:59:24.899Z,21.00
2022-08-20T04:01:55.077Z,20.80
2022-08-20T04:04:24.984Z,22.08
2022-08-20T04:06:55.825Z,22.55
2022-08-20T04:09:25.621Z,20.95
2022-08-20T04:12:00.947Z,21.17
2022-08-20T04:14:33.363Z,21.27
2022-08-20T04:17:07.750Z,22.70
2022-08-20T04:19:38.873Z,20.83
2022-08-20T04:22:08.638Z,19.77
2022-08-20T04:24:38.544Z,21.10
2022-08-20T04:27:08.699Z,23.00
2022-08-20T04:29:44.545Z,22.90
2022-08-20T04:32:17.997Z,20.80
2022-08-20T04:34:51.433Z,21.83
2022-08-20T04:37:24.002Z,21.60
2022-08-20T04:40:06.210Z,21.60
2022-08-20T04:42:35.996Z,20.10
2022-08-20T04:45:10.106Z,20.70
2022-08-20T04:47:39.836Z,22.42
2022-08-20T04:50:11.866Z,22.30
2022-08-20T04:52:41.899Z,21.95
2022-08-20T04:55:12.945Z,25.87
2022-08-20T04:57:42.634Z,24.60
2022-08-20T05:00:18.543Z,23.33
2022-08-20T05:02:48.288Z,24.10
2022-08-20T05:05:18.584Z,21.90
2022-08-20T05:07:49.163Z,22.95
2022-08-20T05:10:20.623Z,22.88
2022-08-20T05:12:56.900Z,24.45
2022-08-20T05:15:29.602Z,25.33
2022-08-20T05:18:04.739Z,23.20
2022-08-20T05:20:39.877Z,24.75
2022-08-20T05:23:11.449Z,22.87
2022-08-20T05:25:41.844Z,23.45
2022-08-20T05:28:13.567Z,22.33
2022-08-20T05:30:47.908Z,24.45
2022-08-20T05:33:19.994Z,22.80
2022-08-20T05:35:52.379Z,23.65
2022-08-20T05:38:24.248Z,22.05
2022-08-20T05:40:54.982Z,23.50
2022-08-20T05:43:24.944Z,23.20
2022-08-20T05:45:58.152Z,23.67
2022-08-20T05:48:28.511Z,22.92
2022-08-20T05:50:58.644Z,24.40
2022-08-20T05:53:28.568Z,23.30
2022-08-20T05:55:58.861Z,23.67
2022-08-20T05:58:32.895Z,23.45
2022-08-20T06:01:05.484Z,21.63
2022-08-20T06:03:47.650Z,22.05
2022-08-20T06:06:38.843Z,21.35
2022-08-20T06:09:07.381Z,20.17
2022-08-20T06:11:37.556Z,21.23
2022-08-20T06:14:07.622Z,20.17
2022-08-20T06:16:39.935Z,19.50
2022-08-20T06:19:27.265Z,20.45
2022-08-20T06:22:02.280Z,18.70
2022-08-20T06:24:38.477Z,19.70
2022-08-20T06:27:09.220Z,20.07
2022-08-20T06:29:39.087Z,19.17
2022-08-20T06:32:11.516Z,18.33
2022-08-20T06:34:50.173Z,19.33
2022-08-20T06:37:23.238Z,18.57
2022-08-20T06:39:58.057Z,20.15
2022-08-20T06:42:27.841Z,19.63
2022-08-20T06:44:59.601Z,19.15
2022-08-20T06:47:31.820Z,19.43
2022-08-20T06:50:01.542Z,18.90
2022-08-20T06:52:51.726Z,18.55
2022-08-20T06:55:21.363Z,18.60
2022-08-20T06:57:55.425Z,17.65
2022-08-20T07:00:25.290Z,18.33
2022-08-20T07:02:58.092Z,18.02
2022-08-20T07:05:27.887Z,18.05
2022-08-20T07:07:57.851Z,15.43
2022-08-20T07:10:27.522Z,16.70
2022-08-20T07:12:57.353Z,15.60
2022-08-20T07:15:28.515Z,15.98
2022-08-20T07:18:04.146Z,16.50
2022-08-20T07:20:36.688Z,15.48
2022-08-20T07:23:06.851Z,15.75
2022-08-20T07:25:37.160Z,15.23
2022-08-20T07:28:08.952Z,14.77
2022-08-20T07:30:56.797Z,18.30
2022-08-20T07:33:31.610Z,19.95
2022-08-20T07:36:04.029Z,22.45
2022-08-20T07:38:35.341Z,24.13
2022-08-20T07:41:07.392Z,24.13
2022-08-20T07:43:37.808Z,23.63
2022-08-20T07:46:09.354Z,23.67
2022-08-20T07:48:46.295Z,23.95
2022-08-20T07:51:17.902Z,25.08
2022-08-20T07:53:48.585Z,25.40
2022-08-20T07:56:21.357Z,25.23
2022-08-20T07:58:52.412Z,25.52
2022-08-20T08:01:25.690Z,25.10
2022-08-20T08:03:58.165Z,25.10
2022-08-20T08:06:31.146Z,26.50
2022-08-20T08:09:06.006Z,27.25
2022-08-20T08:11:37.912Z,30.02
2022-08-20T08:14:09.527Z,29.30
2022-08-20T08:16:39.916Z,30.35
2022-08-20T08:19:14.336Z,30.88
2022-08-20T08:21:44.283Z,38.22
2022-08-20T08:24:19.989Z,43.60
2022-08-20T08:26:52.537Z,45.55
2022-08-20T08:29:22.372Z,47.63
2022-08-20T08:31:52.041Z,48.22
2022-08-20T08:34:25.336Z,49.08
2022-08-20T08:36:55.550Z,48.28
2022-08-20T08:39:25.795Z,47.75
2022-08-20T08:42:05.233Z,51.60
2022-08-20T08:44:38.682Z,50.38
2022-08-20T08:47:14.534Z,53.20
2022-08-20T08:49:48.045Z,51.77
2022-08-20T08:52:23.056Z,51.50
2022-08-20T08:54:56.928Z,52.15
2022-08-20T08:57:29.064Z,50.42
2022-08-20T09:00:04.840Z,47.60
2022-08-20T09:02:36.320Z,46.15
2022-08-20T09:05:17.788Z,47.67
2022-08-20T09:07:51.015Z,47.92
2022-08-20T09:10:23.550Z,45.40
2022-08-20T09:12:53.560Z,46.33
2022-08-20T09:15:24.118Z,45.03
2022-08-20T09:17:53.875Z,45.42
2022-08-20T09:20:27.120Z,43.63
2022-08-20T09:22:57.374Z,42.45
2022-08-20T09:25:27.394Z,42.17
2022-08-20T09:27:57.211Z,40.90
2022-08-20T09:30:26.939Z,41.13
2022-08-20T09:32:56.957Z,41.60
2022-08-20T09:35:29.464Z,39.55
2022-08-20T09:37:59.311Z,38.58
2022-08-20T09:40:29.628Z,40.85
2022-08-20T09:42:59.429Z,42.53
2022-08-20T09:45:29.273Z,41.92
2022-08-20T09:47:59.015Z,41.13
2022-08-20T09:50:35.800Z,37.33
2022-08-20T09:53:07.233Z,37.67
2022-08-20T09:55:38.699Z,35.40
2022-08-20T09:58:11.772Z,35.25
2022-08-20T10:00:41.658Z,33.15
2022-08-20T10:03:11.451Z,33.53
2022-08-20T10:05:43.827Z,32.13
2022-08-20T10:08:14.802Z,31.85
2022-08-20T10:10:44.686Z,27.60
2022-08-20T10:13:15.407Z,30.90
2022-08-20T10:15:45.621Z,28.52
2022-08-20T10:18:15.304Z,28.55
2022-08-20T10:20:47.659Z,29.13
2022-08-20T10:23:17.415Z,27.50
2022-08-20T10:25:47.119Z,25.57
2022-08-20T10:28:16.880Z,26.27
2022-08-20T10:30:47.030Z,25.60
2022-08-20T10:33:16.707Z,23.92
2022-08-20T10:35:49.069Z,22.77
2022-08-20T10:38:20.308Z,24.08
2022-08-20T10:40:52.550Z,25.42
2022-08-20T10:43:22.657Z,26.42
2022-08-20T10:45:53.815Z,25.00
2022-08-20T10:48:24.706Z,24.75
2022-08-20T10:50:57.087Z,24.85
2022-08-20T10:53:26.748Z,25.30
2022-08-20T10:55:57.632Z,27.40
2022-08-20T10:58:37.523Z,24.43
2022-08-20T11:01:09.826Z,26.60
2022-08-20T11:03:39.559Z,26.88
2022-08-20T11:06:11.956Z,27.48
2022-08-20T11:08:42.868Z,24.58
2022-08-20T11:11:12.699Z,23.65
2022-08-20T11:13:42.499Z,24.10
2022-08-20T11:16:12.328Z,23.13
2022-08-20T11:18:47.669Z,23.33
2022-08-20T11:21:20.190Z,23.98
2022-08-20T11:23:49.943Z,23.05
2022-08-20T11:26:24.197Z,24.65
2022-08-20T11:28:54.134Z,23.48
2022-08-20T11:31:23.836Z,24.47
2022-08-20T11:33:53.577Z,24.13
2022-08-20T11:36:26.761Z,23.00
2022-08-20T11:38:56.433Z,23.40
2022-08-20T11:41:26.177Z,21.63
2022-08-20T11:44:19.951Z,21.55
2022-08-20T11:46:45.469Z,22.10
2022-08-20T11:49:15.286Z,21.90
2022-08-20T11:51:49.522Z,23.65
2022-08-20T11:54:20.121Z,24.77
2022-08-20T11:56:51.009Z,21.35
2022-08-20T11:59:20.998Z,20.45
2022-08-20T12:02:02.845Z,20.70
2022-08-20T12:04:35.016Z,20.85
2022-08-20T12:07:14.208Z,21.23
2022-08-20T12:09:51.193Z,18.85
2022-08-20T12:12:23.460Z,20.70
2022-08-20T12:14:53.219Z,19.20
2022-08-20T12:17:25.474Z,18.95
2022-08-20T12:19:57.148Z,18.65
2022-08-20T12:22:29.502Z,17.52
2022-08-20T12:24:59.540Z,17.95
2022-08-20T12:27:30.910Z,20.23
2022-08-20T12:30:03.043Z,17.52
2022-08-20T12:32:34.052Z,17.33
2022-08-20T12:35:03.813Z,17.53
2022-08-20T12:37:36.731Z,17.42
2022-08-20T12:40:09.659Z,16.60
2022-08-20T12:42:39.880Z,19.52
2022-08-20T12:45:11.181Z,18.92
2022-08-20T12:47:45.020Z,18.00
2022-08-20T12:50:16.942Z,17.77
2022-08-20T12:52:50.342Z,17.10
2022-08-20T12:55:22.090Z,17.38
2022-08-20T12:57:53.917Z,17.30
2022-08-20T13:00:26.398Z,15.52
2022-08-20T13:02:57.758Z,14.43
2022-08-20T13:05:27.796Z,14.00
2022-08-20T13:08:00.968Z,15.02
2022-08-20T13:10:32.301Z,14.27
2022-08-20T13:13:03.172Z,14.02
2022-08-20T13:15:33.202Z,14.65
2022-08-20T13:18:04.523Z,14.20
2022-08-20T13:20:35.002Z,14.90
2022-08-20T13:23:08.008Z,13.63
2022-08-20T13:25:37.807Z,14.30
2022-08-20T13:28:08.646Z,14.48
2022-08-20T13:30:41.004Z,13.43
2022-08-20T13:33:10.721Z,15.00
2022-08-20T13:35:40.420Z,13.40
2022-08-20T13:38:12.671Z,12.60
2022-08-20T13:40:42.398Z,11.95
2022-08-20T13:43:12.320Z,12.30
2022-08-20T13:45:42.326Z,13.30
2022-08-20T13:48:15.129Z,12.37
2022-08-20T13:50:46.831Z,11.02
2022-08-20T13:53:19.967Z,12.90
2022-08-20T13:55:49.591Z,12.25
2022-08-20T13:58:21.698Z,12.60
2022-08-20T14:00:52.274Z,14.97
2022-08-20T14:03:25.252Z,14.93
2022-08-20T14:05:55.495Z,13.80
2022-08-20T14:08:27.911Z,14.00
2022-08-20T14:10:57.625Z,13.85
2022-08-20T14:13:29.262Z,13.00
2022-08-20T14:15:59.162Z,13.18
2022-08-20T14:18:28.846Z,12.68
2022-08-20T14:20:58.549Z,12.73
2022-08-20T14:23:31.019Z,12.35
2022-08-20T14:26:06.560Z,12.80
2022-08-20T14:28:36.205Z,11.57
2022-08-20T14:31:05.928Z,11.80
2022-08-20T14:33:36.264Z,10.60
2022-08-20T14:36:07.424Z,9.70
2022-08-20T14:38:45.051Z,11.82
2022-08-20T14:41:14.875Z,10.80
2022-08-20T14:43:44.541Z,12.50
2022-08-20T14:46:14.409Z,12.27
2022-08-20T14:48:44.164Z,11.68
2022-08-20T14:51:13.855Z,10.67
2022-08-20T14:53:46.985Z,8.00
2022-08-20T14:56:18.012Z,7.95
2022-08-20T14:58:47.682Z,8.55
2022-08-20T15:01:17.424Z,8.70
2022-08-20T15:03:47.134Z,8.07
2022-08-20T15:06:21.799Z,8.40
2022-08-20T15:08:54.543Z,7.78
2022-08-20T15:11:24.230Z,9.93
2022-08-20T15:13:54.350Z,9.30
2022-08-20T15:16:24.113Z,8.60
2022-08-20T15:18:59.765Z,8.25
2022-08-20T15:21:29.850Z,9.55
2022-08-20T15:24:19.378Z,9.07
2022-08-20T15:26:49.665Z,9.40
2022-08-20T15:29:23.112Z,8.25
2022-08-20T15:31:53.358Z,8.70
2022-08-20T15:34:23.021Z,10.10
2022-08-20T15:36:52.678Z,10.70
2022-08-20T15:39:25.010Z,11.60
2022-08-20T15:41:54.668Z,10.55
2022-08-20T15:44:24.360Z,9.57
2022-08-20T15:46:54.096Z,9.35
2022-08-20T15:49:23.858Z,8.88
2022-08-20T15:51:53.580Z,8.20
2022-08-20T15:54:27.230Z,8.40
2022-08-20T15:57:04.375Z,8.95
2022-08-20T15:59:53.121Z,8.70
2022-08-20T16:02:51.061Z,9.48
2022-08-20T16:05:29.009Z,8.10
2022-08-20T16:08:08.690Z,8.93
2022-08-20T16:10:50.761Z,8.50
2022-08-20T16:13:27.984Z,9.00
2022-08-20T16:15:58.736Z,9.18
2022-08-20T16:18:31.120Z,8.47
2022-08-20T16:21:03.754Z,8.87
2022-08-20T16:23:35.790Z,8.90
2022-08-20T16:26:18.258Z,8.60
2022-08-20T16:28:55.838Z,7.82
2022-08-20T16:31:28.465Z,7.85
2022-08-20T16:34:04.946Z,6.80
2022-08-20T16:37:03.220Z,7.15
2022-08-20T16:39:40.316Z,7.45
2022-08-20T16:42:13.411Z,7.15
2022-08-20T16:44:45.755Z,7.35
2022-08-20T16:47:19.346Z,8.55
2022-08-20T16:49:52.676Z,6.85
2022-08-20T16:52:22.691Z,6.97
2022-08-20T16:54:52.441Z,7.35
2022-08-20T16:57:24.840Z,7.80
2022-08-20T17:00:01.010Z,7.53
2022-08-20T17:02:30.753Z,6.95
2022-08-20T17:05:06.517Z,7.57
2022-08-20T17:07:46.448Z,6.97
2022-08-20T17:10:23.247Z,5.80
2022-08-20T17:13:02.551Z,6.57
2022-08-20T17:15:35.134Z,5.82
2022-08-20T17:18:20.894Z,5.38
2022-08-20T17:20:50.687Z,4.80
2022-08-20T17:23:22.515Z,4.50
2022-08-20T17:26:01.077Z,4.68
2022-08-20T17:28:35.604Z,4.20
2022-08-20T17:31:05.687Z,3.88
2022-08-20T17:33:37.805Z,4.00
2022-08-20T17:36:13.058Z,3.50
2022-08-20T17:38:48.876Z,3.78
2022-08-20T17:41:21.726Z,3.40
2022-08-20T17:43:59.812Z,3.90
2022-08-20T17:46:30.693Z,3.95
2022-08-20T17:49:01.912Z,4.05
2022-08-20T17:51:36.653Z,3.50
2022-08-20T17:54:14.151Z,3.20
2022-08-20T17:56:46.290Z,3.80
2022-08-20T17:59:59.496Z,3.80
2022-08-20T18:02:12.894Z,3.67
2022-08-20T18:04:42.723Z,3.47
2022-08-20T18:07:17.931Z,3.72
2022-08-20T18:09:53.702Z,3.80
2022-08-20T18:12:33.950Z,3.42
2022-08-20T18:15:11.353Z,3.80
2022-08-20T18:18:09.475Z,3.75
2022-08-20T18:20:46.328Z,4.20
2022-08-20T18:23:19.099Z,9.63
2022-08-20T18:25:50.436Z,3.80
2022-08-20T18:28:25.437Z,4.78
2022-08-20T18:31:00.080Z,4.10
2022-08-20T18:33:32.458Z,4.00
2022-08-20T18:36:11.890Z,3.85
2022-08-20T18:38:44.153Z,4.15
2022-08-20T18:41:17.944Z,3.90
2022-08-20T18:43:47.755Z,4.30
2022-08-20T18:46:23.832Z,4.43
2022-08-20T18:48:55.619Z,4.30
2022-08-20T18:51:31.277Z,4.57
2022-08-20T18:54:01.244Z,4.93
2022-08-20T18:56:36.403Z,5.05
2022-08-20T18:59:09.599Z,5.10
2022-08-20T19:01:43.618Z,4.93
2022-08-20T19:04:29.651Z,5.40
2022-08-20T19:07:02.221Z,4.97
2022-08-20T19:09:55.360Z,5.40
2022-08-20T19:13:01.446Z,5.45
2022-08-20T19:15:34.138Z,4.90
2022-08-20T19:18:11.944Z,5.75
2022-08-20T19:20:44.369Z,6.05
2022-08-20T19:23:16.892Z,5.88
2022-08-20T19:25:54.417Z,6.03
2022-08-20T19:28:28.396Z,6.30
2022-08-20T19:30:58.658Z,6.10
2022-08-20T19:33:32.763Z,6.85
2022-08-20T19:36:16.252Z,6.82
2022-08-20T19:38:51.098Z,6.30
2022-08-20T19:41:30.859Z,6.80
2022-08-20T19:44:01.548Z,6.70
2022-08-20T19:46:33.431Z,6.90
2022-08-20T19:49:16.066Z,6.78
2022-08-20T19:51:54.418Z,7.00
2022-08-20T19:54:25.184Z,7.00
2022-08-20T19:56:59.311Z,6.78
2022-08-20T19:59:30.271Z,6.38
2022-08-20T20:02:02.850Z,6.57
2022-08-20T20:04:55.051Z,7.50
2022-08-20T20:07:27.779Z,6.60
2022-08-20T20:09:59.545Z,7.28
2022-08-20T20:12:29.202Z,7.47
2022-08-20T20:14:58.925Z,7.30
2022-08-20T20:17:34.523Z,8.02
2022-08-20T20:20:21.247Z,7.50
2022-08-20T20:22:53.961Z,7.38
2022-08-20T20:25:26.774Z,7.30
2022-08-20T20:27:57.986Z,7.43
2022-08-20T20:30:32.175Z,7.43
2022-08-20T20:33:03.835Z,7.20
2022-08-20T20:35:37.769Z,7.47
2022-08-20T20:38:10.591Z,7.30
2022-08-20T20:40:49.214Z,7.60
2022-08-20T20:43:26.800Z,6.97
2022-08-20T20:46:06.420Z,7.68
2022-08-20T20:48:46.094Z,7.30
2022-08-20T20:51:20.678Z,6.80
2022-08-20T20:53:54.899Z,7.30
2022-08-20T20:56:30.395Z,7.20
2022-08-20T20:59:05.291Z,7.25
2022-08-20T21:01:48.234Z,7.85
2022-08-20T21:04:21.312Z,7.53
2022-08-20T21:06:54.378Z,8.20
2022-08-20T21:09:25.354Z,8.13
2022-08-20T21:11:55.413Z,8.40
2022-08-20T21:14:25.142Z,8.50
2022-08-20T21:16:55.580Z,8.10
2022-08-20T21:19:25.347Z,8.37
2022-08-20T21:21:58.019Z,8.40
2022-08-20T21:24:27.785Z,7.80
2022-08-20T21:26:58.470Z,8.00
2022-08-20T21:29:32.452Z,8.23
2022-08-20T21:32:02.978Z,7.93
2022-08-20T21:34:32.790Z,8.02
2022-08-20T21:37:05.092Z,7.85
2022-08-20T21:39:34.875Z,8.20
2022-08-20T21:42:21.008Z,8.20
2022-08-20T21:44:56.312Z,7.80
2022-08-20T21:47:25.941Z,8.70
2022-08-20T21:49:55.962Z,9.50
2022-08-20T21:52:28.203Z,8.23
2022-08-20T21:54:58.271Z,8.50
2022-08-20T21:57:29.809Z,8.88
2022-08-20T22:00:01.875Z,7.88
2022-08-20T22:02:34.866Z,9.13
2022-08-20T22:05:05.257Z,8.50
2022-08-20T22:07:40.604Z,8.35
2022-08-20T22:10:11.555Z,8.00
2022-08-20T22:12:41.184Z,9.05
2022-08-20T22:15:11.953Z,8.67
2022-08-20T22:17:41.688Z,8.43
2022-08-20T22:20:12.756Z,9.00
2022-08-20T22:22:45.937Z,9.00
2022-08-20T22:25:15.980Z,9.52
2022-08-20T22:27:45.974Z,9.07
2022-08-20T22:30:16.268Z,9.20
2022-08-20T22:32:51.816Z,9.55
2022-08-20T22:35:22.111Z,9.43
2022-08-20T22:37:54.320Z,9.10
2022-08-20T22:40:25.345Z,9.00
2022-08-20T22:42:55.198Z,9.48
2022-08-20T22:45:25.055Z,7.60
2022-08-20T22:47:54.663Z,9.35
2022-08-20T22:50:25.784Z,9.30
2022-08-20T22:52:58.252Z,8.82
2022-08-20T22:55:28.239Z,9.30
2022-08-20T22:57:58.209Z,9.60
2022-08-20T23:00:28.164Z,9.45
2022-08-20T23:03:00.074Z,9.93
2022-08-20T23:05:32.398Z,8.85
2022-08-20T23:08:05.007Z,8.80
2022-08-20T23:10:35.666Z,9.57
2022-08-20T23:13:05.590Z,9.77
2022-08-20T23:15:37.045Z,9.15
2022-08-20T23:18:13.456Z,9.50
2022-08-20T23:20:44.077Z,9.77
2022-08-20T23:23:16.341Z,9.97
2022-08-20T23:25:46.092Z,9.67
2022-08-20T23:28:15.763Z,9.43
2022-08-20T23:30:45.493Z,10.07
2022-08-20T23:33:15.265Z,10.10
2022-08-20T23:35:45.586Z,9.57
2022-08-20T23:38:18.087Z,9.75
2022-08-20T23:40:47.764Z,10.20
2022-08-20T23:43:18.747Z,9.63
2022-08-20T23:45:48.687Z,9.60
2022-08-20T23:48:18.539Z,9.70
2022-08-20T23:50:48.220Z,9.52
2022-08-20T23:53:20.562Z,10.00
2022-08-20T23:55:50.266Z,9.50
2022-08-20T23:58:19.977Z,9.82
